CheckWX is a tool to help pilots better visualize weather data.  It is not intended as a substitute for an official pre-flight weather briefing.

13:23:49 UTC

UBBY TAF
Zaqatala International Airport
Zaqatala, Azerbaijan
TAF UBBY 241100Z 2412/2421 VRB04KT 9999 FEW040 SCT080 TEMPO 2412/2418 FEW040CB BKN060

May-24@
12:00 UTC

May-24 @ 12:00 UTC

May-24@
21:00 UTC

May-24 @ 21:00 UTC

TAF UBBY 241100Z 2412/2421 VRB04KT 9999 FEW040 SCT080
Wind
  • Variable at 4 KTS
Cloud Levels
  • Few at 4,000' AGL
  • Scattered at 8,000' AGL

May-24@
12:00 UTC

May-24 @ 12:00 UTC

May-24@
18:00 UTC

May-24 @ 18:00 UTC

TEMPO 2412/2418 FEW040CB BKN060

Temporary

Temporary Changes expected for less than half the time period

Cloud Levels
  • Few at 4,000' AGL
  • Broken at 6,000' AGL